Time;durP1;ratioP1;P1;durP2;ratioP2;P2;SDS_P1;SDS_P2;PMS_P1;PMS_P2;Temp;Humidity;BMP_temperature;BMP_pressure;BME280_temperature;BME280_humidity;BME280_pressure;Samples;Min_cycle;Max_cycle;Signal;HPM_P1;HPM_P2
2022/03/18 00:02:12;;;;;;;;;48.50;42.75;9.10;51.30;;;;;;5116033;28;8769;-65
2022/03/18 00:04:37;;;;;;;;;49.50;43.00;9.10;51.10;;;;;;5115048;28;8772;-65
2022/03/18 00:07:04;;;;;;;;;46.00;39.00;8.90;51.70;;;;;;5097584;28;8849;-65
2022/03/18 00:09:30;;;;;;;;;41.25;36.00;9.00;51.60;;;;;;5115522;28;8888;-66
2022/03/18 00:11:57;;;;;;;;;51.00;41.25;8.90;52.10;;;;;;5097660;28;8788;-67
2022/03/18 00:14:23;;;;;;;;;50.25;40.25;9.20;51.30;;;;;;5115780;28;8844;-66
2022/03/18 00:16:49;;;;;;;;;55.75;43.50;9.40;50.90;;;;;;5115449;28;8776;-65
2022/03/18 00:19:15;;;;;;;;;49.75;42.75;9.10;51.40;;;;;;5115470;28;8823;-64
2022/03/18 00:21:41;;;;;;;;;45.25;41.00;9.20;51.00;;;;;;5115751;28;9486;-65
2022/03/18 00:24:07;;;;;;;;;50.50;44.25;9.00;51.40;;;;;;5115651;28;8772;-64
2022/03/18 00:26:33;;;;;;;;;43.00;37.00;8.70;52.40;;;;;;5115637;28;8778;-66
2022/03/18 00:28:59;;;;;;;;;35.25;32.75;9.10;51.80;;;;;;5115370;28;8749;-66
2022/03/18 00:31:25;;;;;;;;;48.75;42.25;8.90;52.20;;;;;;5115278;28;8855;-64
2022/03/18 00:33:51;;;;;;;;;44.25;40.75;8.20;53.90;;;;;;5115470;28;8857;-66
2022/03/18 00:36:17;;;;;;;;;51.00;41.75;8.10;54.80;;;;;;5115096;28;8764;-65
2022/03/18 00:38:43;;;;;;;;;53.00;42.50;8.50;53.70;;;;;;5115323;28;8822;-65
2022/03/18 00:41:09;;;;;;;;;48.75;40.25;8.30;54.00;;;;;;5115046;28;8931;-66
2022/03/18 00:43:35;;;;;;;;;53.50;42.75;8.30;54.00;;;;;;5115093;28;8772;-64
2022/03/18 00:46:01;;;;;;;;;48.50;41.50;8.70;53.30;;;;;;5115289;28;8764;-66
2022/03/18 00:53:55;;;;;;;;;47.50;36.75;9.40;50.30;;;;;;5115090;28;8873;-66
2022/03/18 00:56:21;;;;;;;;;59.50;48.50;9.60;49.50;;;;;;5114900;28;8941;-64
2022/03/18 00:58:47;;;;;;;;;44.75;40.50;9.70;48.90;;;;;;5114834;28;8856;-65
2022/03/18 01:01:13;;;;;;;;;59.00;50.25;9.60;49.10;;;;;;5114919;28;8781;-65
2022/03/18 01:03:38;;;;;;;;;62.00;50.75;9.90;48.70;;;;;;5115079;28;8866;-66
2022/03/18 01:06:04;;;;;;;;;62.00;52.25;10.00;48.00;;;;;;5114813;28;8869;-65
2022/03/18 01:08:31;;;;;;;;;67.75;53.75;10.10;47.70;;;;;;5114827;28;8922;-66
2022/03/18 01:10:57;;;;;;;;;68.25;54.75;10.00;47.70;;;;;;5115008;28;8788;-63
2022/03/18 01:13:23;;;;;;;;;65.25;52.00;10.00;47.80;;;;;;5115041;28;8772;-65
2022/03/18 01:15:49;;;;;;;;;65.75;51.25;10.00;47.60;;;;;;5116281;28;8768;-65
2022/03/18 01:18:15;;;;;;;;;69.00;56.50;9.80;48.00;;;;;;5119064;28;8760;-65
2022/03/18 01:20:41;;;;;;;;;67.25;53.50;9.70;48.30;;;;;;5118823;28;8788;-65
2022/03/18 01:23:10;;;;;;;;;74.25;61.25;9.80;48.40;;;;;;5119167;28;8752;-65
2022/03/18 01:25:35;;;;;;;;;67.00;55.00;9.80;48.50;;;;;;5118804;28;8768;-65
2022/03/18 01:28:02;;;;;;;;;69.00;54.00;9.60;48.60;;;;;;5118782;28;8903;-64
2022/03/18 01:30:32;;;;;;;;;67.00;52.00;9.80;48.50;;;;;;5118991;28;8760;-65
2022/03/18 01:33:01;;;;;;;;;69.75;57.00;9.90;48.00;;;;;;5118737;28;8763;-65
2022/03/18 01:35:27;;;;;;;;;73.50;56.50;9.90;48.00;;;;;;5118951;28;8787;-65
2022/03/18 01:37:53;;;;;;;;;71.75;57.75;9.70;48.10;;;;;;5118697;28;8937;-64
2022/03/18 01:40:19;;;;;;;;;67.50;53.75;9.70;48.70;;;;;;5118877;28;8943;-64
2022/03/18 01:42:45;;;;;;;;;75.50;57.00;9.80;48.20;;;;;;5118598;28;8772;-66
2022/03/18 01:45:11;;;;;;;;;72.75;58.00;9.70;48.50;;;;;;5118456;28;8769;-65
2022/03/18 01:47:42;;;;;;;;;57.25;46.75;9.50;48.60;;;;;;5118821;28;8880;-65
2022/03/18 01:50:13;;;;;;;;;60.50;47.75;9.10;49.90;;;;;;5118487;28;8895;-64
2022/03/18 01:52:39;;;;;;;;;44.75;41.00;8.70;50.90;;;;;;5118413;28;9483;-65
2022/03/18 01:55:06;;;;;;;;;50.00;44.25;8.50;52.00;;;;;;5118259;28;8845;-65
2022/03/18 01:57:31;;;;;;;;;57.00;46.25;8.70;51.80;;;;;;5118467;28;8772;-65
2022/03/18 01:59:57;;;;;;;;;55.25;42.50;8.50;52.30;;;;;;5118107;28;8857;-64
2022/03/18 02:02:24;;;;;;;;;51.75;42.25;8.50;52.50;;;;;;5118158;28;8780;-65
2022/03/18 02:04:50;;;;;;;;;50.50;44.75;8.50;52.90;;;;;;5118056;28;8756;-66
2022/03/18 02:07:16;;;;;;;;;48.00;41.50;8.70;52.90;;;;;;5118011;28;8764;-65
2022/03/18 02:09:43;;;;;;;;;54.00;45.25;8.50;53.40;;;;;;5117879;28;8962;-65
2022/03/18 02:12:11;;;;;;;;;52.25;43.00;8.40;53.80;;;;;;5117874;28;8783;-66
2022/03/18 02:14:41;;;;;;;;;49.50;42.00;8.40;53.30;;;;;;5117868;28;8780;-66
2022/03/18 02:17:09;;;;;;;;;52.50;44.25;7.90;55.80;;;;;;5117844;28;8844;-65
2022/03/18 02:19:37;;;;;;;;;54.75;45.00;7.90;55.80;;;;;;5117754;28;8808;-66
2022/03/18 02:22:39;;;;;;;;;60.75;50.75;7.60;56.70;;;;;;5118029;28;8756;-66
2022/03/18 02:25:09;;;;;;;;;65.50;53.25;7.60;57.00;;;;;;5117737;28;8764;-65
2022/03/18 02:27:52;;;;;;;;;70.00;55.00;7.40;56.70;;;;;;5116867;28;8871;-65
2022/03/18 02:30:17;;;;;;;;;67.25;57.00;7.10;58.30;;;;;;5117639;28;8882;-65
2022/03/18 02:32:43;;;;;;;;;66.00;55.00;7.00;59.20;;;;;;5117509;28;8783;-67
2022/03/18 02:35:09;;;;;;;;;75.25;60.00;7.00;60.00;;;;;;5117462;28;8839;-66
2022/03/18 02:37:35;;;;;;;;;82.25;65.00;6.80;59.60;;;;;;5117640;28;8760;-65
2022/03/18 02:40:02;;;;;;;;;74.75;62.50;6.60;60.80;;;;;;5117329;28;8827;-65
2022/03/18 02:42:28;;;;;;;;;79.50;63.25;6.90;59.90;;;;;;5117348;28;8767;-66
2022/03/18 02:44:54;;;;;;;;;82.75;64.00;6.60;60.00;;;;;;5117255;28;8780;-65
2022/03/18 02:47:20;;;;;;;;;80.75;65.25;6.80;60.00;;;;;;5117241;28;8788;-65
2022/03/18 02:49:46;;;;;;;;;83.25;64.50;6.80;59.70;;;;;;5117472;28;8896;-65
2022/03/18 02:52:13;;;;;;;;;81.25;62.00;6.70;60.40;;;;;;5117087;28;8764;-65
2022/03/18 02:54:40;;;;;;;;;77.75;59.50;6.20;62.60;;;;;;5117177;28;8874;-65
2022/03/18 02:57:05;;;;;;;;;67.75;55.00;6.50;62.20;;;;;;5117026;28;8802;-65
2022/03/18 02:59:32;;;;;;;;;62.00;50.75;6.70;61.20;;;;;;5116961;28;8804;-65
2022/03/18 03:01:59;;;;;;;;;64.00;50.00;7.00;60.00;;;;;;5116908;28;8776;-63
2022/03/18 03:04:25;;;;;;;;;61.00;47.75;7.10;59.20;;;;;;5116915;28;8780;-65
2022/03/18 03:09:35;;;;;;;;;42.00;40.50;7.40;58.90;;;;;;5116695;28;8812;-65
2022/03/18 03:12:01;;;;;;;;;55.25;44.00;7.80;57.20;;;;;;5117100;28;8767;-65
2022/03/18 03:14:27;;;;;;;;;51.50;44.75;7.50;57.40;;;;;;5099194;28;9526;-67
2022/03/18 03:16:53;;;;;;;;;57.25;46.50;7.20;59.70;;;;;;5116706;28;8768;-67
2022/03/18 03:19:18;;;;;;;;;54.25;46.50;7.30;58.90;;;;;;5116549;28;8828;-66
2022/03/18 03:21:44;;;;;;;;;56.75;48.00;7.30;58.80;;;;;;5116586;28;8780;-66
2022/03/18 03:24:10;;;;;;;;;62.25;48.00;7.60;57.80;;;;;;5116493;28;8772;-66
2022/03/18 03:26:36;;;;;;;;;64.50;51.50;7.40;57.40;;;;;;5116254;28;8823;-66
2022/03/18 03:29:02;;;;;;;;;69.75;55.75;7.50;56.90;;;;;;5116773;28;8760;-65
2022/03/18 03:31:27;;;;;;;;;67.50;54.25;7.60;55.90;;;;;;5116376;28;8760;-66
2022/03/18 03:33:53;;;;;;;;;58.25;47.50;7.30;56.60;;;;;;5116674;28;8764;-66
2022/03/18 03:36:19;;;;;;;;;66.50;54.00;7.40;56.30;;;;;;5116596;28;8753;-65
2022/03/18 03:38:45;;;;;;;;;64.50;53.25;7.10;57.50;;;;;;5115377;28;8819;-67
2022/03/18 03:41:11;;;;;;;;;62.50;51.00;7.20;57.10;;;;;;5116102;28;8800;-66
2022/03/18 03:43:38;;;;;;;;;65.50;52.25;7.20;57.20;;;;;;5116157;28;8764;-65
2022/03/18 03:46:04;;;;;;;;;77.75;62.50;7.10;57.10;;;;;;5116138;28;8779;-66
2022/03/18 03:48:30;;;;;;;;;90.75;70.75;7.00;57.60;;;;;;5116003;28;8818;-65
2022/03/18 03:50:56;;;;;;;;;97.00;80.50;6.80;59.30;;;;;;5115979;28;8936;-65
2022/03/18 03:53:22;;;;;;;;;89.25;69.25;6.70;59.30;;;;;;5116187;28;8879;-65
2022/03/18 03:55:48;;;;;;;;;85.75;67.75;7.00;58.40;;;;;;5115897;28;9473;-65
2022/03/18 03:58:14;;;;;;;;;66.00;55.50;7.40;56.70;;;;;;5115858;28;8772;-65
2022/03/18 04:00:40;;;;;;;;;68.50;56.00;7.20;56.60;;;;;;5115709;28;8922;-64
2022/03/18 04:03:06;;;;;;;;;80.75;64.25;7.30;57.80;;;;;;5116104;28;8896;-64
2022/03/18 04:05:33;;;;;;;;;70.50;57.00;7.60;55.50;;;;;;5115773;28;8768;-65
2022/03/18 04:08:00;;;;;;;;;63.75;52.00;7.20;56.10;;;;;;5115621;28;8771;-66
2022/03/18 04:10:26;;;;;;;;;77.50;57.50;7.40;56.20;;;;;;5115901;28;9767;-66
2022/03/18 04:12:52;;;;;;;;;75.50;60.50;7.50;55.60;;;;;;5115709;28;8879;-64
2022/03/18 04:15:18;;;;;;;;;76.00;60.75;7.70;54.80;;;;;;5115794;28;8770;-65
2022/03/18 04:17:45;;;;;;;;;67.75;55.75;7.50;55.20;;;;;;5115720;28;8895;-66
2022/03/18 04:20:21;;;;;;;;;67.25;55.00;7.70;54.60;;;;;;5115637;28;8788;-65
2022/03/18 04:22:47;;;;;;;;;59.25;49.75;7.80;54.30;;;;;;5115653;28;8833;-63
2022/03/18 04:25:13;;;;;;;;;63.00;50.25;7.70;54.70;;;;;;5115426;28;8760;-66
2022/03/18 04:27:40;;;;;;;;;59.75;49.00;8.00;53.80;;;;;;5115610;28;8762;-65
2022/03/18 04:30:11;;;;;;;;;58.25;48.25;8.10;53.80;;;;;;5115523;28;9496;-66
2022/03/18 04:32:38;;;;;;;;;59.75;48.75;8.20;53.10;;;;;;5115630;28;9417;-65
2022/03/18 04:35:08;;;;;;;;;59.75;50.50;8.20;52.90;;;;;;5115513;28;8768;-66
2022/03/18 04:37:34;;;;;;;;;65.75;54.50;8.30;52.80;;;;;;5115248;28;8768;-66
2022/03/18 04:40:00;;;;;;;;;67.50;55.75;8.30;52.30;;;;;;5125195;27;8852;-66
2022/03/18 04:42:26;;;;;;;;;68.50;55.25;8.20;52.40;;;;;;5135627;27;8861;-65
2022/03/18 04:44:52;;;;;;;;;75.25;60.25;7.80;53.70;;;;;;5116962;27;8768;-66
2022/03/18 04:47:17;;;;;;;;;68.25;56.25;7.80;53.70;;;;;;5115234;28;8772;-63
2022/03/18 04:49:43;;;;;;;;;70.75;56.00;7.70;54.50;;;;;;5096894;28;8796;-66
2022/03/18 04:52:09;;;;;;;;;64.75;53.75;7.70;54.40;;;;;;5114777;28;8791;-65
2022/03/18 04:54:35;;;;;;;;;65.25;54.50;7.40;55.70;;;;;;5115290;28;8756;-65
2022/03/18 04:57:16;;;;;;;;;65.00;52.00;7.00;57.50;;;;;;5114902;28;9476;-64
2022/03/18 04:59:46;;;;;;;;;76.00;59.50;7.20;56.70;;;;;;5114809;28;8831;-65
2022/03/18 05:02:14;;;;;;;;;81.00;64.25;7.40;56.20;;;;;;5113103;28;8802;-65
2022/03/18 05:04:41;;;;;;;;;80.25;63.25;7.60;55.20;;;;;;5115108;28;8882;-63
2022/03/18 05:07:07;;;;;;;;;77.50;62.00;7.70;54.40;;;;;;5114775;28;8862;-64
2022/03/18 05:21:41;;;;;;;;;70.50;54.00;7.80;52.80;;;;;;5094064;27;13473;-65
2022/03/18 05:24:07;;;;;;;;;72.50;57.00;7.50;55.20;;;;;;5102117;28;8784;-65
2022/03/18 05:26:34;;;;;;;;;73.25;57.50;7.50;54.80;;;;;;5112297;28;8790;-65
2022/03/18 05:29:01;;;;;;;;;74.00;58.50;7.50;55.10;;;;;;5094038;28;9525;-64
2022/03/18 05:31:27;;;;;;;;;72.75;59.75;7.50;55.60;;;;;;5111875;28;8837;-66
2022/03/18 05:33:54;;;;;;;;;67.75;55.50;7.50;55.30;;;;;;5111952;28;8760;-65
2022/03/18 05:36:21;;;;;;;;;78.50;61.00;7.10;56.40;;;;;;5112068;28;8805;-65
2022/03/18 05:38:46;;;;;;;;;77.75;61.75;6.90;57.70;;;;;;5107705;28;8780;-64
2022/03/18 05:41:12;;;;;;;;;77.50;61.00;7.00;57.10;;;;;;5105244;28;8829;-65
2022/03/18 05:43:39;;;;;;;;;82.25;66.25;7.10;57.00;;;;;;5105216;28;8790;-64
2022/03/18 05:46:04;;;;;;;;;78.25;60.50;6.80;58.00;;;;;;5092066;28;8774;-63
2022/03/18 05:48:30;;;;;;;;;74.50;60.50;6.90;58.30;;;;;;5101432;28;8840;-64
2022/03/18 05:50:56;;;;;;;;;90.25;71.25;6.70;58.80;;;;;;5102871;28;8849;-64
2022/03/18 05:53:22;;;;;;;;;93.25;72.00;6.70;59.60;;;;;;5093560;28;8790;-65
2022/03/18 05:58:32;;;;;;;;;86.75;67.00;6.90;58.80;;;;;;5091476;28;8809;-63
2022/03/18 06:00:58;;;;;;;;;75.50;60.00;6.80;59.50;;;;;;5101160;28;8826;-64
2022/03/18 06:03:24;;;;;;;;;77.25;59.25;6.60;60.00;;;;;;5098804;28;8790;-65
2022/03/18 06:05:50;;;;;;;;;74.00;59.50;6.60;60.40;;;;;;5100870;28;9398;-65
2022/03/18 06:14:04;;;;;;;;;84.50;66.00;7.30;57.70;;;;;;5025377;28;8766;-63
2022/03/18 06:16:30;;;;;;;;;76.00;61.00;7.60;56.50;;;;;;5028522;28;9517;-64
2022/03/18 06:18:56;;;;;;;;;72.25;58.25;7.50;56.60;;;;;;5028501;28;8786;-65
2022/03/18 06:21:22;;;;;;;;;70.75;58.00;7.80;55.40;;;;;;5022002;28;8844;-63
2022/03/18 06:23:48;;;;;;;;;66.50;55.25;8.20;54.00;;;;;;5015207;28;8937;-64
2022/03/18 06:26:14;;;;;;;;;63.50;51.75;8.00;54.70;;;;;;5015304;28;8782;-64
2022/03/18 06:28:39;;;;;;;;;68.00;55.75;8.10;54.30;;;;;;5015141;28;8835;-64
2022/03/18 06:31:06;;;;;;;;;73.25;55.75;7.70;55.90;;;;;;5015027;28;8798;-65
2022/03/18 06:33:33;;;;;;;;;74.00;58.25;8.30;54.10;;;;;;5015116;28;8781;-64
2022/03/18 06:35:59;;;;;;;;;66.00;53.75;8.50;54.10;;;;;;5014990;28;8892;-65
2022/03/18 06:38:25;;;;;;;;;67.25;55.00;8.30;53.40;;;;;;5014818;28;8796;-64
2022/03/18 06:40:51;;;;;;;;;76.25;60.50;8.60;52.60;;;;;;5014935;28;8800;-64
2022/03/18 06:43:17;;;;;;;;;65.75;55.00;8.30;53.20;;;;;;5096920;28;8776;-63
2022/03/18 06:45:43;;;;;;;;;69.50;55.50;8.50;53.20;;;;;;5097247;28;8787;-64
2022/03/18 06:48:09;;;;;;;;;71.75;57.75;8.50;52.80;;;;;;5096973;28;8772;-64
2022/03/18 06:50:34;;;;;;;;;74.75;58.25;8.20;53.40;;;;;;5096965;28;8942;-64
2022/03/18 06:53:01;;;;;;;;;66.25;53.25;8.20;55.10;;;;;;5096738;28;8768;-63
2022/03/18 06:55:27;;;;;;;;;65.50;53.00;8.30;54.00;;;;;;5096969;28;8768;-63
2022/03/18 06:57:53;;;;;;;;;70.00;54.50;8.50;53.20;;;;;;5096713;28;8878;-63
2022/03/18 07:00:19;;;;;;;;;66.00;55.50;8.90;52.00;;;;;;5096949;28;8843;-65
2022/03/18 07:02:45;;;;;;;;;69.75;54.50;9.10;51.00;;;;;;5078874;28;8768;-65
2022/03/18 07:05:12;;;;;;;;;68.00;55.25;9.50;50.10;;;;;;5096990;28;8782;-64
2022/03/18 07:07:38;;;;;;;;;66.75;53.50;9.10;50.20;;;;;;5096555;28;8767;-64
2022/03/18 07:10:04;;;;;;;;;63.50;52.50;9.30;50.60;;;;;;5096712;28;9013;-64
2022/03/18 07:12:30;;;;;;;;;56.75;45.25;9.40;49.80;;;;;;5096504;28;8779;-64
2022/03/18 07:14:56;;;;;;;;;67.25;54.25;9.30;50.10;;;;;;5096469;28;8780;-64
2022/03/18 07:20:06;;;;;;;;;60.50;48.75;9.50;48.80;;;;;;5096198;28;8800;-64
2022/03/18 07:22:32;;;;;;;;;55.00;45.75;9.70;47.90;;;;;;5096259;28;8799;-64
2022/03/18 07:24:58;;;;;;;;;64.00;48.00;9.80;47.30;;;;;;5096185;28;8889;-63
2022/03/18 07:27:24;;;;;;;;;68.25;54.00;10.00;46.80;;;;;;5096429;28;8779;-64
2022/03/18 07:29:49;;;;;;;;;52.75;45.00;9.80;47.20;;;;;;5096063;28;8822;-62
2022/03/18 07:32:17;;;;;;;;;61.75;47.75;9.00;47.60;;;;;;5095769;28;8829;-62
2022/03/18 07:34:43;;;;;;;;;59.75;51.00;8.70;49.80;;;;;;5095660;28;8752;-64
2022/03/18 07:37:09;;;;;;;;;66.75;54.25;8.70;49.50;;;;;;5095680;28;9477;-64
2022/03/18 07:39:34;;;;;;;;;48.50;38.00;9.10;48.30;;;;;;5095907;28;8786;-64
2022/03/18 07:42:00;;;;;;;;;52.00;42.00;8.60;49.00;;;;;;5095821;28;8791;-64
2022/03/18 07:44:26;;;;;;;;;56.50;45.75;8.40;49.60;;;;;;5095832;28;8768;-65
2022/03/18 07:46:52;;;;;;;;;52.75;44.00;8.60;49.90;;;;;;5095690;28;8791;-65
2022/03/18 07:49:17;;;;;;;;;55.00;46.25;8.60;49.40;;;;;;5095718;28;8902;-64
2022/03/18 07:51:43;;;;;;;;;55.50;45.25;8.90;49.10;;;;;;5095632;28;8776;-64
2022/03/18 07:54:09;;;;;;;;;46.50;39.25;9.00;49.30;;;;;;5095617;28;8787;-66
2022/03/18 07:56:35;;;;;;;;;54.25;44.00;9.10;48.40;;;;;;5095726;28;8748;-68
2022/03/18 07:59:00;;;;;;;;;45.50;40.75;9.60;46.70;;;;;;5095733;28;8779;-64
2022/03/18 08:01:26;;;;;;;;;54.00;42.75;9.80;46.10;;;;;;5095506;28;9476;-64
2022/03/18 08:03:52;;;;;;;;;53.25;45.75;9.90;46.10;;;;;;5095328;28;9776;-64
2022/03/18 08:06:20;;;;;;;;;48.25;40.00;10.10;45.60;;;;;;5095341;28;8803;-63
2022/03/18 08:08:46;;;;;;;;;50.00;41.00;10.20;44.70;;;;;;5095400;28;8759;-63
2022/03/18 08:11:12;;;;;;;;;48.75;41.75;10.30;44.20;;;;;;5095236;28;8823;-65
2022/03/18 08:13:38;;;;;;;;;59.00;48.25;10.30;43.60;;;;;;5095464;28;8803;-66
2022/03/18 08:16:04;;;;;;;;;50.75;42.00;10.20;43.60;;;;;;5095344;28;8861;-63
2022/03/18 08:18:30;;;;;;;;;54.50;45.50;10.50;43.90;;;;;;5095028;28;8825;-64
2022/03/18 08:20:56;;;;;;;;;47.50;38.75;10.60;44.70;;;;;;5095025;28;8802;-64
2022/03/18 08:23:23;;;;;;;;;48.75;40.75;10.80;41.40;;;;;;5094799;28;8784;-62
2022/03/18 08:25:49;;;;;;;;;55.00;44.25;10.80;43.00;;;;;;5095306;28;8837;-64
2022/03/18 08:28:14;;;;;;;;;48.75;40.50;10.80;42.50;;;;;;5095034;28;8780;-64
2022/03/18 08:30:40;;;;;;;;;52.50;44.25;10.80;44.50;;;;;;5094783;28;8959;-63
2022/03/18 08:33:06;;;;;;;;;57.25;48.00;10.80;42.10;;;;;;5094896;28;8854;-63
2022/03/18 08:35:36;;;;;;;;;49.25;42.25;10.70;41.50;;;;;;5095040;28;8808;-63
2022/03/18 08:38:04;;;;;;;;;51.50;42.25;11.40;41.60;;;;;;5076881;28;9577;-63
2022/03/18 08:40:35;;;;;;;;;51.00;42.00;11.40;40.60;;;;;;5095054;28;8756;-64
2022/03/18 08:43:04;;;;;;;;;48.25;39.75;10.60;41.70;;;;;;5095070;28;8844;-63
2022/03/18 08:45:31;;;;;;;;;47.00;41.75;10.60;41.30;;;;;;5094594;28;8795;-64
2022/03/18 08:47:57;;;;;;;;;47.00;39.50;11.00;41.30;;;;;;5094699;28;8760;-64
2022/03/18 08:50:24;;;;;;;;;55.25;43.25;11.40;39.70;;;;;;5094540;28;8839;-66
2022/03/18 08:52:52;;;;;;;;;61.25;50.25;11.30;40.40;;;;;;5094549;28;8782;-65
2022/03/18 08:55:18;;;;;;;;;37.25;36.00;11.80;39.40;;;;;;5094575;28;8813;-65
2022/03/18 08:57:44;;;;;;;;;54.00;45.25;11.50;39.20;;;;;;5094843;28;8771;-64
2022/03/18 09:00:13;;;;;;;;;49.50;40.00;11.40;40.50;;;;;;5094387;28;8827;-68
2022/03/18 09:02:39;;;;;;;;;55.75;45.25;11.30;40.20;;;;;;5094751;28;8760;-73
2022/03/18 09:05:07;;;;;;;;;64.00;51.25;11.10;41.50;;;;;;5094621;28;8829;-64
2022/03/18 09:07:34;;;;;;;;;56.50;45.25;11.40;40.00;;;;;;5094551;28;8760;-68
2022/03/18 09:10:00;;;;;;;;;46.25;41.00;11.40;40.20;;;;;;5094544;28;9433;-68
2022/03/18 09:12:27;;;;;;;;;51.50;42.75;11.20;40.60;;;;;;5094362;28;8760;-68
2022/03/18 09:14:54;;;;;;;;;53.50;44.00;11.20;40.80;;;;;;5094459;28;8767;-68
2022/03/18 09:17:20;;;;;;;;;56.75;46.00;11.40;41.60;;;;;;5094402;28;8776;-65
2022/03/18 09:19:46;;;;;;;;;50.25;39.75;11.70;40.90;;;;;;5094380;28;8803;-63
2022/03/18 09:22:16;;;;;;;;;53.25;43.50;11.80;40.50;;;;;;5094513;28;9129;-69
2022/03/18 09:24:46;;;;;;;;;57.25;47.25;11.70;40.00;;;;;;5094573;28;8768;-69
2022/03/18 09:27:14;;;;;;;;;61.00;48.75;11.80;40.90;;;;;;5094677;28;8910;-67
2022/03/18 09:29:40;;;;;;;;;60.25;48.50;12.00;40.10;;;;;;5094183;28;8800;-67
2022/03/18 09:32:06;;;;;;;;;46.25;40.75;12.00;39.40;;;;;;5094923;28;8811;-68
2022/03/18 09:34:32;;;;;;;;;56.00;44.75;11.60;40.40;;;;;;5094168;28;8802;-68
2022/03/18 09:36:59;;;;;;;;;49.25;42.50;11.70;40.10;;;;;;5094187;28;8760;-68
2022/03/18 09:39:28;;;;;;;;;52.50;40.50;12.10;39.60;;;;;;5094310;28;9529;-68
2022/03/18 09:41:55;;;;;;;;;48.25;39.00;12.20;38.90;;;;;;5094095;28;8760;-67
2022/03/18 09:44:21;;;;;;;;;47.75;40.25;12.20;38.00;;;;;;5094305;28;9444;-66
2022/03/18 09:46:50;;;;;;;;;44.50;38.00;12.00;38.20;;;;;;5094363;28;8741;-68
2022/03/18 09:49:19;;;;;;;;;46.75;39.50;11.70;38.60;;;;;;5094142;28;8946;-68
2022/03/18 09:51:47;;;;;;;;;54.00;45.25;11.90;39.00;;;;;;5094333;28;9452;-68
2022/03/18 09:54:14;;;;;;;;;46.50;39.00;12.30;38.50;;;;;;5094030;28;8792;-69
2022/03/18 09:56:45;;;;;;;;;42.75;37.00;12.50;37.20;;;;;;5095608;28;8756;-64
2022/03/18 09:59:12;;;;;;;;;45.00;39.00;12.50;37.20;;;;;;5097539;28;8782;-63
2022/03/18 10:01:37;;;;;;;;;47.75;39.25;12.60;36.50;;;;;;5097853;28;8783;-64
2022/03/18 10:04:10;;;;;;;;;42.25;35.50;12.10;37.20;;;;;;5097676;28;8780;-64
2022/03/18 10:06:37;;;;;;;;;45.50;36.50;12.20;37.00;;;;;;5097693;28;8763;-64
2022/03/18 10:09:05;;;;;;;;;40.50;37.50;12.70;35.30;;;;;;5097693;28;8786;-64
2022/03/18 10:11:34;;;;;;;;;41.75;35.75;12.50;36.40;;;;;;5097511;28;8752;-64
2022/03/18 10:14:14;;;;;;;;;46.00;39.00;13.20;34.90;;;;;;5097830;28;8760;-64
2022/03/18 10:16:48;;;;;;;;;48.25;40.25;13.20;35.20;;;;;;5097588;28;8868;-64
2022/03/18 10:19:22;;;;;;;;;42.00;36.75;13.10;35.50;;;;;;5097319;28;8787;-64
2022/03/18 10:22:08;;;;;;;;;49.00;42.25;12.80;36.10;;;;;;5097458;28;9431;-63
2022/03/18 10:24:38;;;;;;;;;44.25;38.00;13.30;34.50;;;;;;5097594;28;8774;-64
2022/03/18 10:27:15;;;;;;;;;45.75;40.50;13.30;34.70;;;;;;5097122;28;8928;-64
2022/03/18 10:29:47;;;;;;;;;49.75;39.50;13.70;34.30;;;;;;5097263;28;8814;-64
2022/03/18 10:32:15;;;;;;;;;46.00;37.75;13.40;34.20;;;;;;5079218;28;9525;-64
2022/03/18 10:37:54;;;;;;;;;41.50;37.00;12.90;35.40;;;;;;5034744;28;9526;-64
2022/03/18 10:40:34;;;;;;;;;46.75;38.75;13.10;36.10;;;;;;5088326;28;8865;-64
2022/03/18 10:43:07;;;;;;;;;45.75;37.25;13.50;34.60;;;;;;5096842;28;8763;-64
2022/03/18 10:45:34;;;;;;;;;42.25;37.75;14.30;33.20;;;;;;5097012;28;9410;-64
2022/03/18 10:48:10;;;;;;;;;43.75;37.75;15.20;30.90;;;;;;5096728;28;8785;-64
2022/03/18 10:50:37;;;;;;;;;50.75;40.50;14.40;31.70;;;;;;5096918;28;9421;-64
2022/03/18 10:53:11;;;;;;;;;43.25;39.00;14.40;32.00;;;;;;5096550;28;8894;-64
2022/03/18 10:55:39;;;;;;;;;38.25;34.25;14.90;30.90;;;;;;5096597;28;8786;-64
2022/03/18 10:58:15;;;;;;;;;39.50;34.00;14.70;30.90;;;;;;5096852;28;9437;-64
2022/03/18 11:00:51;;;;;;;;;47.00;39.50;14.60;30.00;;;;;;5096694;28;8806;-64
2022/03/18 11:03:18;;;;;;;;;37.50;33.00;14.60;30.10;;;;;;5096127;28;8790;-68
2022/03/18 11:05:47;;;;;;;;;36.25;34.00;14.80;30.00;;;;;;5096211;28;8772;-69
2022/03/18 11:08:16;;;;;;;;;38.00;34.00;14.70;31.10;;;;;;5096494;28;8795;-64
2022/03/18 11:13:48;;;;;;;;;29.00;28.50;15.60;29.20;;;;;;5096487;28;9092;-63
2022/03/18 11:16:17;;;;;;;;;51.25;43.25;16.00;28.10;;;;;;5096593;28;9516;-64
2022/03/18 11:18:45;;;;;;;;;42.75;36.25;15.50;29.30;;;;;;5096354;28;9428;-67
2022/03/18 11:21:12;;;;;;;;;58.50;49.00;14.90;29.20;;;;;;5095912;28;8831;-65
2022/03/18 11:23:40;;;;;;;;;38.50;35.00;14.90;30.20;;;;;;5096473;28;8897;-62
2022/03/18 11:26:07;;;;;;;;;38.50;33.25;15.30;29.70;;;;;;5096287;28;8782;-62
2022/03/18 11:28:33;;;;;;;;;36.33;32.33;15.80;29.10;;;;;;5096061;28;8763;-62
2022/03/18 11:31:04;;;;;;;;;29.33;29.33;16.60;27.60;;;;;;5095932;28;8854;-61
2022/03/18 11:33:31;;;;;;;;;34.67;33.00;16.40;27.60;;;;;;5095945;28;8791;-61
2022/03/18 11:36:11;;;;;;;;;31.33;30.33;17.10;26.70;;;;;;5096349;28;8780;-65
2022/03/18 11:38:58;;;;;;;;;43.00;36.67;18.50;25.40;;;;;;5095973;28;8793;-66
2022/03/18 11:41:26;;;;;;;;;32.33;31.33;20.50;23.60;;;;;;5095786;28;8848;-65
2022/03/18 11:43:52;;;;;;;;;34.33;31.33;20.80;22.60;;;;;;5095798;28;8849;-64
2022/03/18 11:46:21;;;;;;;;;31.00;29.00;21.30;23.00;;;;;;5095525;28;8756;-66
2022/03/18 11:48:54;;;;;;;;;26.33;26.33;20.90;22.10;;;;;;5077284;28;8837;-66
2022/03/18 11:51:32;;;;;;;;;27.33;27.00;20.80;23.20;;;;;;5095343;28;8869;-66
2022/03/18 11:54:00;;;;;;;;;26.00;25.33;22.30;22.00;;;;;;5095714;28;8767;-65
2022/03/18 11:56:45;;;;;;;;;30.00;28.67;22.70;20.20;;;;;;5095609;28;8756;-65
2022/03/18 11:59:29;;;;;;;;;32.67;29.67;22.90;20.60;;;;;;5095779;28;9492;-63
2022/03/18 12:02:05;;;;;;;;;27.00;27.00;23.50;20.00;;;;;;5095818;28;8795;-62
2022/03/18 12:04:36;;;;;;;;;36.00;31.67;23.10;20.50;;;;;;5095365;28;8868;-62
2022/03/18 12:07:09;;;;;;;;;36.33;33.67;22.30;21.20;;;;;;5095365;28;8775;-63
2022/03/18 12:09:53;;;;;;;;;36.00;31.67;22.20;21.10;;;;;;5095367;28;9506;-62
2022/03/18 12:12:43;;;;;;;;;29.33;29.33;21.60;21.20;;;;;;5095261;28;8759;-62
2022/03/18 12:15:18;;;;;;;;;35.33;32.00;22.50;20.30;;;;;;5095186;28;8870;-62
2022/03/18 12:17:47;;;;;;;;;9.33;9.33;21.60;20.70;;;;;;5095041;28;8775;-63
2022/03/18 12:20:18;;;;;;;;;24.00;24.00;21.60;20.80;;;;;;5094369;28;8804;-63
2022/03/18 12:22:44;;;;;;;;;25.33;24.67;21.60;20.70;;;;;;5095208;28;8796;-63
2022/03/18 12:25:11;;;;;;;;;29.33;28.33;21.00;20.60;;;;;;5094929;28;8764;-62
2022/03/18 12:27:39;;;;;;;;;26.67;26.00;20.10;21.20;;;;;;5094946;28;8782;-63
2022/03/18 12:30:07;;;;;;;;;30.33;28.00;20.60;21.00;;;;;;5094740;28;8842;-62
2022/03/18 12:32:59;;;;;;;;;35.00;29.33;20.30;21.20;;;;;;5094956;28;8869;-63
2022/03/18 12:35:34;;;;;;;;;28.67;27.67;21.30;21.30;;;;;;5090055;28;8760;-63
2022/03/18 12:38:09;;;;;;;;;29.00;26.00;23.20;19.30;;;;;;5094735;28;9226;-63
2022/03/18 12:40:37;;;;;;;;;31.33;29.00;22.80;19.40;;;;;;5095087;28;8760;-62
2022/03/18 12:43:03;;;;;;;;;32.67;31.00;21.90;20.20;;;;;;5095270;28;8805;-63
2022/03/18 12:45:30;;;;;;;;;27.33;27.00;22.00;19.80;;;;;;5094503;28;8775;-63
2022/03/18 12:48:10;;;;;;;;;27.00;27.00;21.40;20.30;;;;;;5094668;28;9417;-62
2022/03/18 12:50:39;;;;;;;;;30.67;30.33;22.30;19.90;;;;;;5094848;28;8838;-63
2022/03/18 12:53:14;;;;;;;;;25.67;25.00;23.10;19.40;;;;;;5094547;28;8774;-63
2022/03/18 12:55:42;;;;;;;;;28.33;27.33;22.50;19.00;;;;;;5094621;28;8748;-62
2022/03/18 12:58:08;;;;;;;;;26.33;25.00;21.80;19.50;;;;;;5094509;28;8878;-63
2022/03/18 13:00:42;;;;;;;;;29.00;28.67;21.50;19.80;;;;;;5094508;28;8808;-62
2022/03/18 13:03:16;;;;;;;;;34.00;31.67;21.10;19.70;;;;;;5094152;28;8787;-62
2022/03/18 13:05:42;;;;;;;;;28.33;28.33;22.30;19.00;;;;;;5094488;28;8756;-62
2022/03/18 13:08:09;;;;;;;;;30.00;29.00;22.40;18.10;;;;;;5094846;28;8816;-64
2022/03/18 13:10:36;;;;;;;;;27.67;26.00;22.60;18.50;;;;;;5094331;28;8819;-63
2022/03/18 13:13:13;;;;;;;;;31.33;30.33;23.20;18.30;;;;;;5094638;28;9467;-62
2022/03/18 13:15:44;;;;;;;;;22.67;22.67;24.60;17.20;;;;;;5094544;28;8756;-63
2022/03/18 13:18:12;;;;;;;;;28.00;24.33;23.80;17.80;;;;;;5094331;28;8775;-62
2022/03/18 13:20:42;;;;;;;;;34.33;31.00;23.80;17.20;;;;;;5094035;28;9484;-64
2022/03/18 13:23:12;;;;;;;;;30.00;29.33;22.20;17.70;;;;;;5094198;28;8788;-62
2022/03/18 13:25:40;;;;;;;;;30.33;30.33;22.30;18.20;;;;;;5094112;28;8775;-62